Enschede Airport Twente

EHTW · Overijssel, 荷兰

罗盘
风向 的 风向 140° Enschede Airport Twente 5/23
风: 2 kt, 1 beaufort


2 kt
改变
0 1.000 2.000 3.000 4.000 5.000
FEW 100 ft
BKN 700 ft
OVC 2.100 ft
METAR EDDG 051820Z AUTO 14002KT 6000 -RA FEW001 BKN007 OVC021 01/01 Q1019 NOSIG

METAR Enschede Airport Twente - EHTW/ENS

Enschede Airport Twente是,荷兰中的中型机场。 该机场有一条跑道: 5/23. 该领域的国际民航组织标志是EHTW 它的国际航空运输协会代码是ENS.

这份报告是针对2022年12月5日 19:20, 当地时间在Münster Osnabrück Airport进行的。

机场观察

风向为140°,速度为2 kt。

可见度为6 km。

有几云在100 ft的高度, 碎云在700 ft的高度 和 乌云密布在2.100 ft的高度。 破损或更高的上限为700 ft。

当前天气为光 雨。 温度为1 °C,阵风为-1 °C。 露点为1 °C,相对湿度为100%。 海平面上的气压为1019 hPa (QNH)。

白天

今天,太阳从08:24升起,在16:21降落。 这适用于Enschede Airport Twente,世界夏令时可能有所不同。 当地时间与世界标准时间之间的时差为+1 小时。 当前,没有夏令时有效。

公司介绍

我们没有关于这个机场的公司信息。

体会

到Vliegles.nl去找飞行课程,跳伞和其他飞行体验。 浏览页面,了解Enschede Airport Twente附近所有可用的活动。 你也可以使用搜索功能来寻找你所在地附近的特定飞行课程、跳伞或其他飞行体验。

跑道

Id 标题 侧风 逆风 侧风 %
5/23 056°-236° 2 kt 99 %

逆风成分最大的方向会被突出显示,并用于横风计算。 这并不一定意味着这个方向在使用。

乌云

100 ft FEW 几云
700 ft BKN 碎云
2.100 ft OVC 乌云密布

温度 & 天气

天气 光 雨
温度 1 °C
露点 1 °C
相对湿度 100%
风寒 -1 °C
Kp-index 0 (0-9)

白天

日出
08:20 (12:42)
中午
12:19
日落
16:18

小工具

你想在你的网站上有一个关于Enschede Airport Twente的当前航空天气(METAR)的小部件吗?

显示HTML代码

我们和第三方通过cookies跟踪您在我们网站上的互联网行为。如果你继续,我们认为你同意我们的饼干政策